Weather reports worldwide

Advertisment
Weeze/Niederrhein, Germany (10405): temperature & dewpoint: 20.09.2018 05:00:00 - 26.09.2018 05:00:00 (CEST)Weeze/Niederrhein, Germany (10405): wind speed: 20.09.2018 05:00:00 - 26.09.2018 05:00:00 (CEST)Weeze/Niederrhein, Germany (10405): wind direction: 20.09.2018 05:00:00 - 26.09.2018 05:00:00 (CEST)Weeze/Niederrhein, Germany (10405): visibility: 20.09.2018 05:00:00 - 26.09.2018 05:00:00 (CEST)
Date & Time tt [°C] td [°C] ff [km/h] ff [kn] dd vv [km]
26.09.2018 05:00:00 6,0 6,0 8 4 SE 10
26.09.2018 04:00:00 - - - - - -
26.09.2018 03:00:00 - - - - - -
26.09.2018 02:00:00 - - - - - -
26.09.2018 01:00:00 - - - - - -
26.09.2018 00:00:00 7,0 6,0 4 2 SE 10
25.09.2018 23:00:00 7,0 5,0 5 3 - 10
25.09.2018 22:00:00 8,0 6,0 4 2 ESE 10
25.09.2018 21:00:00 9,0 5,0 0 0 N 10
25.09.2018 20:00:00 12,0 5,0 4 2 - 10
25.09.2018 19:00:00 15,0 5,0 5 3 S 10
25.09.2018 18:00:00 15,0 4,0 5 3 - 10
25.09.2018 17:00:00 16,0 5,0 9 5 SSE 10
25.09.2018 16:00:00 16,0 5,0 8 4 ESE 10
25.09.2018 15:00:00 14,0 5,0 8 4 SSW 10
25.09.2018 14:00:00 14,0 4,0 4 2 - 10
25.09.2018 13:00:00 15,0 4,0 5 3 - 10
25.09.2018 12:00:00 14,0 5,0 5 3 - 10
25.09.2018 11:00:00 12,0 8,0 5 3 - 10
25.09.2018 10:00:00 10,0 10,0 2 1 - 10
25.09.2018 09:00:00 6,0 6,0 2 1 - 10
25.09.2018 08:00:00 3,0 3,0 4 2 ESE 10
25.09.2018 07:00:00 4,0 4,0 0 0 N 10
25.09.2018 06:00:00 4,0 4,0 2 1 WSW 10
25.09.2018 05:00:00 5,0 5,0 4 2 SSE 10
25.09.2018 04:00:00 - - - - - -
25.09.2018 03:00:00 - - - - - -
25.09.2018 02:00:00 - - - - - -
25.09.2018 01:00:00 - - - - - -
25.09.2018 00:00:00 8,0 8,0 4 2 - 10
24.09.2018 23:00:00 9,0 7,0 0 0 N 10
24.09.2018 22:00:00 10,0 6,0 0 0 N 10
24.09.2018 21:00:00 11,0 6,0 4 2 - 10
24.09.2018 20:00:00 12,0 5,0 11 6 NW 10
24.09.2018 19:00:00 14,0 4,0 15 8 - 10
24.09.2018 18:00:00 15,0 4,0 15 8 NW 10
24.09.2018 17:00:00 15,0 4,0 13 7 - 10
24.09.2018 16:00:00 14,0 7,0 9 5 NW 10
24.09.2018 15:00:00 15,0 8,0 15 8 W 10
24.09.2018 14:00:00 11,0 8,0 21 11 W 10
24.09.2018 13:00:00 14,0 7,0 18 10 W 10
24.09.2018 12:00:00 13,0 7,0 16 9 WNW 10
24.09.2018 11:00:00 13,0 9,0 15 8 W 10
24.09.2018 10:00:00 10,0 9,0 15 8 W 10
24.09.2018 09:00:00 8,0 8,0 11 6 WSW 10
24.09.2018 08:00:00 7,0 7,0 9 5 W 10
24.09.2018 07:00:00 7,0 7,0 9 5 W 10
24.09.2018 06:00:00 7,0 7,0 9 5 W 10
24.09.2018 05:00:00 7,0 7,0 11 6 W 10
24.09.2018 04:00:00 - - - - - -
24.09.2018 03:00:00 - - - - - -
24.09.2018 02:00:00 - - - - - -
24.09.2018 01:00:00 - - - - - -
24.09.2018 00:00:00 9,0 9,0 8 4 W 10
23.09.2018 23:00:00 10,0 10,0 11 6 WNW 10
23.09.2018 22:00:00 10,0 10,0 11 6 W 10
23.09.2018 21:00:00 9,0 9,0 11 6 W 10
23.09.2018 20:00:00 9,0 9,0 11 6 NW 10
23.09.2018 19:00:00 10,0 10,0 9 5 NW 10
23.09.2018 18:00:00 10,0 10,0 8 4 - 10
23.09.2018 17:00:00 10,0 10,0 11 6 - 10
23.09.2018 16:00:00 11,0 11,0 9 5 - 10
23.09.2018 15:00:00 11,0 11,0 13 7 NNE 8
23.09.2018 14:00:00 11,0 11,0 9 5 - 3,7
23.09.2018 13:00:00 11,0 11,0 8 4 - 3,4
23.09.2018 12:00:00 12,0 12,0 8 4 NE 3,9
23.09.2018 11:00:00 12,0 12,0 8 4 NE 2,5
23.09.2018 10:00:00 11,0 11,0 8 4 NE 2,8
23.09.2018 09:00:00 11,0 11,0 8 4 NNE 2,8
23.09.2018 08:00:00 11,0 11,0 5 3 - 3,3
23.09.2018 07:00:00 11,0 11,0 4 2 - 5
23.09.2018 06:00:00 11,0 11,0 5 3 - 4,0
23.09.2018 05:00:00 11,0 11,0 5 3 - 4,3
23.09.2018 04:00:00 - - - - - -
23.09.2018 03:00:00 - - - - - -
23.09.2018 02:00:00 - - - - - -
23.09.2018 01:00:00 - - - - - -
23.09.2018 00:00:00 11,0 11,0 11 6 S 10
22.09.2018 23:00:00 11,0 11,0 11 6 S 10
22.09.2018 22:00:00 11,0 11,0 5 3 S 10
22.09.2018 21:00:00 11,0 11,0 8 4 SSW 10
22.09.2018 20:00:00 11,0 11,0 9 5 SW 10
22.09.2018 19:00:00 11,0 11,0 13 7 W 10
22.09.2018 18:00:00 11,0 11,0 11 6 W 9
22.09.2018 17:00:00 13,0 9,0 18 10 SW 10
22.09.2018 16:00:00 16,0 7,0 18 10 SW 10
22.09.2018 15:00:00 16,0 8,0 24 13 WSW 10
22.09.2018 14:00:00 16,0 8,0 24 13 SW 10
22.09.2018 13:00:00 16,0 8,0 24 13 SW 10
22.09.2018 12:00:00 15,0 9,0 22 12 SW 10
22.09.2018 11:00:00 14,0 10,0 21 11 SW 10
22.09.2018 10:00:00 13,0 10,0 21 11 SW 10
22.09.2018 09:00:00 12,0 9,0 18 10 SW 10
22.09.2018 08:00:00 11,0 9,0 15 8 SSW 10
22.09.2018 07:00:00 11,0 9,0 11 6 SSW 10
22.09.2018 06:00:00 11,0 9,0 15 8 SW 10
22.09.2018 05:00:00 12,0 9,0 16 9 SW 10
22.09.2018 04:00:00 - - - - - -
22.09.2018 03:00:00 - - - - - -
22.09.2018 02:00:00 - - - - - -
22.09.2018 01:00:00 - - - - - -
22.09.2018 00:00:00 14,0 7,0 28 15 WSW 10
21.09.2018 23:00:00 14,0 7,0 28 15 SW 10
21.09.2018 22:00:00 13,0 7,0 18 10 SW 10
21.09.2018 21:00:00 13,0 7,0 16 9 WSW 10
21.09.2018 20:00:00 13,0 7,0 31 17 WSW 9
21.09.2018 19:00:00 16,0 4,0 29 16 WSW 10
21.09.2018 18:00:00 17,0 4,0 37 20 W 10
21.09.2018 17:00:00 17,0 3,0 44 24 W 10
21.09.2018 16:00:00 17,0 7,0 35 19 W 10
21.09.2018 15:00:00 16,0 8,0 31 17 W 10
21.09.2018 14:00:00 16,0 9,0 37 20 W 10
21.09.2018 13:00:00 17,0 10,0 31 17 W 10
21.09.2018 12:00:00 16,0 13,0 21 11 SW 10
21.09.2018 11:00:00 15,0 12,0 26 14 WSW 10
21.09.2018 10:00:00 18,0 15,0 31 17 SW 9
21.09.2018 09:00:00 21,0 12,0 28 15 SSW 10
21.09.2018 08:00:00 21,0 11,0 26 14 SSW 10
21.09.2018 07:00:00 21,0 12,0 24 13 SSW 10
21.09.2018 06:00:00 21,0 13,0 26 14 SSW 10
21.09.2018 05:00:00 21,0 13,0 18 10 S 10
21.09.2018 04:00:00 - - - - - -
21.09.2018 03:00:00 - - - - - -
21.09.2018 02:00:00 - - - - - -
21.09.2018 01:00:00 - - - - - -
21.09.2018 00:00:00 20,0 12,0 13 7 SSE 10
20.09.2018 23:00:00 21,0 12,0 13 7 S 10
20.09.2018 22:00:00 20,0 13,0 9 5 S 10
20.09.2018 21:00:00 20,0 13,0 9 5 S 10
20.09.2018 20:00:00 22,0 12,0 8 4 S 10
20.09.2018 19:00:00 24,0 12,0 15 8 S 10
20.09.2018 18:00:00 25,0 12,0 16 9 S 10
20.09.2018 17:00:00 26,0 12,0 21 11 SSW 10
20.09.2018 16:00:00 25,0 12,0 22 12 SW 10
20.09.2018 15:00:00 24,0 13,0 26 14 SW 10
20.09.2018 14:00:00 23,0 13,0 28 15 SW 10
20.09.2018 13:00:00 23,0 14,0 22 12 SW 10
20.09.2018 12:00:00 23,0 15,0 22 12 SW 10
20.09.2018 11:00:00 21,0 14,0 18 10 SSW 10
20.09.2018 10:00:00 19,0 14,0 15 8 SSW 10
20.09.2018 09:00:00 - - - - - -
20.09.2018 08:00:00 15,0 14,0 9 5 S 10
20.09.2018 07:00:00 15,0 13,0 11 6 S 10
20.09.2018 06:00:00 15,0 13,0 9 5 S 10
20.09.2018 05:00:00 16,0 13,0 11 6 S 10

tt = temperature
td = dewpoint
ff = wind speed
dd = wind direction
vv = visibility

Next stations